EW6292 Weather Reports


Display with metric or nautical units.
time (UTC)temp
F
wind
direction
speed
MPH
gust
MPH
rain 1hr
in
rain 24hr
in
rain mn
in
humidity
%
barometer
mb
20191215073712 37 332 1.0 5.0 0.00 0.00 0.00 85 1015.3
20191215073212 37 327 2.0 5.0 0.00 0.00 0.00 85 1015.2
20191215070712 37 337 0.0 0.0 0.00 0.00 0.00 85 1015.2
20191215070212 37 337 0.0 0.0 0.00 0.00 0.00 85 1015.1
20191215063712 37 355 0.0 0.0 0.00 0.00 0.00 85 1014.6
20191215060712 38 337 1.0 3.0 0.00 0.00 0.00 85 1014.5
20191215060212 38 342 0.0 3.0 0.00 0.00 0.00 85 1014.4
20191215053712 39 332 1.0 3.0 0.00 0.00 0.00 85 1014.3
20191215050712 39 340 0.0 3.0 0.00 0.00 0.00 85 1014.0
20191215050212 39 339 0.0 6.0 0.00 0.00 0.00 85 1013.9
20191215043712 39 340 0.0 3.0 0.00 0.00 0.00 85 1013.8
20191215043212 39 334 0.0 6.0 0.00 0.00 0.00 85 1013.7
20191215040713 40 336 1.0 5.0 0.00 0.00 0.00 85 1013.2
20191215040212 40 344 0.0 0.0 0.00 0.00 0.00 85 1013.2
20191215033712 40 344 0.0 2.0 0.00 0.00 0.00 86 1012.9
20191215033212 40 348 2.0 6.0 0.00 0.00 0.00 86 1012.7
20191215030213 41 325 1.0 3.0 0.00 0.01 0.00 86 1012.6
20191215023712 41 336 0.0 0.0 0.00 0.01 0.00 86 1012.3
20191215020214 41 328 0.0 3.0 0.00 0.01 0.00 87 1012.0
20191215013213 41 327 0.0 0.0 0.00 0.01 0.00 87 1011.6
20191215010713 42 327 0.0 0.0 0.00 0.01 0.00 87 1011.6
20191215010212 42 327 0.0 0.0 0.00 0.01 0.00 87 1011.3
20191215003212 42 327 0.0 3.0 0.00 0.01 0.00 87 1010.5
20191215000712 42 325 0.0 0.0 0.00 0.01 0.00 87 1010.5
20191215000214 42 325 1.0 5.0 0.00 0.01 0.00 87 1010.5
20191214233712 42 330 0.0 0.0 0.00 0.01 0.00 87 1010.3
20191214230213 43 330 0.0 5.0 0.00 0.01 0.00 87 1010.2
20191214223713 43 290 0.0 0.0 0.00 0.01 0.00 87 1009.7
20191214223212 43 290 0.0 3.0 0.00 0.01 0.00 87 1009.7
20191214220713 44 242 0.0 1.0 0.00 0.01 0.00 87 1009.7
20191214213712 44 229 0.0 2.0 0.00 0.01 0.00 87 1009.0
20191214210712 45 212 0.0 3.0 0.00 0.01 0.00 88 1008.3
20191214203713 45 208 0.0 0.0 0.00 0.01 0.00 88 1007.8
20191214203212 45 207 0.0 5.0 0.00 0.01 0.00 88 1007.7
20191214200714 45 236 1.0 3.0 0.00 0.01 0.00 88 1007.5
20191214200213 45 226 0.0 3.0 0.00 0.01 0.00 88 1007.4
20191214193213 45 215 0.0 3.0 0.00 0.01 0.00 89 1007.0
20191214190712 45 148 0.0 0.0 0.00 0.01 0.00 89 1006.8
20191214183713 44 140 0.0 0.0 0.00 0.01 0.00 89 1006.9
20191214183213 44 138 0.0 0.0 0.00 0.01 0.00 89 1007.0
20191214173713 43 144 0.0 0.0 0.00 0.05 0.00 90 1006.9
20191214173214 43 143 0.0 5.0 0.00 0.05 0.00 90 1006.9
20191214170213 42 217 0.0 1.0 0.00 0.05 0.00 90 1007.5
20191214163714 41 217 0.0 0.0 0.00 0.05 0.00 90 1007.7
20191214163213 41 217 0.0 2.0 0.00 0.05 0.00 89 1007.6
20191214160713 40 219 0.0 0.0 0.00 0.05 0.00 89 1007.7
20191214160213 40 218 0.0 5.0 0.00 0.05 0.00 89 1007.6
20191214153714 39 224 1.0 3.0 0.00 0.05 0.00 89 1007.8
20191214153213 39 219 0.0 3.0 0.00 0.05 0.00 89 1007.6
20191214150714 39 238 0.0 0.0 0.00 0.05 0.00 89 1007.6
20191214143713 37 180 0.0 0.0 0.00 0.05 0.00 89 1006.9
20191214143214 37 180 0.0 3.0 0.00 0.05 0.00 89 1006.9
20191214140713 37 126 1.0 5.0 0.00 0.05 0.00 89 1005.5
20191214140213 37 104 3.0 5.0 0.00 0.05 0.00 89 1005.3
20191214133213 37 221 0.0 0.0 0.00 0.05 0.00 89 1006.4
20191214130714 37 221 0.0 0.0 0.00 0.05 0.00 89 1006.7
20191214123713 37 240 1.0 3.0 0.00 0.05 0.00 88 1007.0
20191214123214 36 241 0.0 1.0 0.00 0.05 0.00 88 1007.0
20191214120713 35 241 0.0 0.0 0.00 0.05 0.00 88 1006.6
20191214120213 35 241 0.0 0.0 0.00 0.05 0.00 88 1006.5
20191214113213 35 241 0.0 0.0 0.00 0.05 0.00 88 1006.1
20191214110714 35 241 0.0 0.0 0.00 0.05 0.00 88 1006.0
20191214103714 35 241 0.0 0.0 0.00 0.05 0.00 88 1006.3
20191214103213 36 241 0.0 0.0 0.00 0.05 0.00 88 1006.4
20191214100713 36 241 0.0 0.0 0.00 0.05 0.00 87 1006.5
20191214100213 37 241 0.0 0.0 0.00 0.05 0.00 88 1006.4
20191214093214 39 241 0.0 0.0 0.00 0.05 0.00 88 1005.8
20191214090714 40 241 0.0 0.0 0.00 0.05 0.00 88 1006.1
20191214090214 40 241 0.0 0.0 0.00 0.05 0.00 88 1006.2
20191214083713 40 241 0.0 0.0 0.00 0.05 0.00 88 1006.4
20191214083214 40 241 0.0 0.0 0.00 0.05 0.00 88 1006.4